sensor_id;sensor_type;location;lat;lon;timestamp;pressure;altitude;pressure_sealevel;temperature;humidity
65010;BME280;51556;50.002;22.014;2022-08-01T00:01:01;98803.79;;;16.86;81.06
65010;BME280;51556;50.002;22.014;2022-08-01T00:03:27;98807.02;;;16.82;81.31
65010;BME280;51556;50.002;22.014;2022-08-01T00:05:52;98804.82;;;16.74;81.81
65010;BME280;51556;50.002;22.014;2022-08-01T00:08:18;98810.41;;;16.67;81.84
65010;BME280;51556;50.002;22.014;2022-08-01T00:10:43;98807.58;;;16.64;82.03
65010;BME280;51556;50.002;22.014;2022-08-01T00:13:09;98810.33;;;16.68;81.75
65010;BME280;51556;50.002;22.014;2022-08-01T00:15:34;98806.80;;;16.71;81.75
65010;BME280;51556;50.002;22.014;2022-08-01T00:18:00;98807.76;;;16.70;81.98
65010;BME280;51556;50.002;22.014;2022-08-01T00:20:26;98808.68;;;16.66;81.99
65010;BME280;51556;50.002;22.014;2022-08-01T00:22:52;98806.70;;;16.67;81.74
65010;BME280;51556;50.002;22.014;2022-08-01T00:25:17;98814.98;;;16.65;82.20
65010;BME280;51556;50.002;22.014;2022-08-01T00:27:43;98813.08;;;16.67;81.83
65010;BME280;51556;50.002;22.014;2022-08-01T00:30:08;98814.17;;;16.66;81.90
65010;BME280;51556;50.002;22.014;2022-08-01T00:32:34;98814.02;;;16.66;81.94
65010;BME280;51556;50.002;22.014;2022-08-01T00:35:00;98812.79;;;16.69;81.77
65010;BME280;51556;50.002;22.014;2022-08-01T00:37:25;98813.58;;;16.74;81.71
65010;BME280;51556;50.002;22.014;2022-08-01T00:39:51;98808.96;;;16.77;81.82
65010;BME280;51556;50.002;22.014;2022-08-01T00:42:17;98805.86;;;16.75;81.94
65010;BME280;51556;50.002;22.014;2022-08-01T00:44:42;98807.66;;;16.75;81.85
65010;BME280;51556;50.002;22.014;2022-08-01T00:47:08;98806.56;;;16.78;81.95
65010;BME280;51556;50.002;22.014;2022-08-01T00:49:33;98806.48;;;16.80;81.79
65010;BME280;51556;50.002;22.014;2022-08-01T00:52:00;98809.16;;;16.79;81.72
65010;BME280;51556;50.002;22.014;2022-08-01T00:54:27;98808.44;;;16.82;81.48
65010;BME280;51556;50.002;22.014;2022-08-01T00:56:53;98811.16;;;16.84;81.54
65010;BME280;51556;50.002;22.014;2022-08-01T00:59:21;98809.83;;;16.86;81.42
65010;BME280;51556;50.002;22.014;2022-08-01T01:01:47;98807.95;;;16.84;81.48
65010;BME280;51556;50.002;22.014;2022-08-01T01:04:12;98807.27;;;16.84;81.44
65010;BME280;51556;50.002;22.014;2022-08-01T01:06:56;98802.23;;;16.82;81.46
65010;BME280;51556;50.002;22.014;2022-08-01T01:12:15;98798.44;;;16.80;81.30
65010;BME280;51556;50.002;22.014;2022-08-01T01:18:11;98798.27;;;16.80;81.26
65010;BME280;51556;50.002;22.014;2022-08-01T01:20:41;98799.15;;;16.83;81.31
65010;BME280;51556;50.002;22.014;2022-08-01T01:23:31;98793.94;;;16.84;81.07
65010;BME280;51556;50.002;22.014;2022-08-01T01:31:42;98799.38;;;16.82;80.92
65010;BME280;51556;50.002;22.014;2022-08-01T01:34:11;98797.27;;;16.82;81.02
65010;BME280;51556;50.002;22.014;2022-08-01T01:36:39;98801.78;;;16.84;81.05
65010;BME280;51556;50.002;22.014;2022-08-01T01:39:05;98799.71;;;16.86;80.98
65010;BME280;51556;50.002;22.014;2022-08-01T01:41:32;98804.96;;;16.87;80.91
65010;BME280;51556;50.002;22.014;2022-08-01T01:44:01;98803.13;;;16.85;81.13
65010;BME280;51556;50.002;22.014;2022-08-01T01:46:28;98810.05;;;16.82;80.99
65010;BME280;51556;50.002;22.014;2022-08-01T01:48:57;98807.45;;;16.81;80.96
65010;BME280;51556;50.002;22.014;2022-08-01T01:51:25;98805.84;;;16.84;81.13
65010;BME280;51556;50.002;22.014;2022-08-01T01:53:53;98808.02;;;16.89;81.00
65010;BME280;51556;50.002;22.014;2022-08-01T01:56:20;98807.64;;;16.90;80.91
65010;BME280;51556;50.002;22.014;2022-08-01T01:58:52;98808.41;;;16.86;80.95
65010;BME280;51556;50.002;22.014;2022-08-01T02:01:20;98808.24;;;16.85;81.06
65010;BME280;51556;50.002;22.014;2022-08-01T02:03:48;98810.43;;;16.85;81.32
65010;BME280;51556;50.002;22.014;2022-08-01T02:06:15;98811.77;;;16.80;81.24
65010;BME280;51556;50.002;22.014;2022-08-01T02:08:42;98816.80;;;16.82;81.29
65010;BME280;51556;50.002;22.014;2022-08-01T02:11:09;98815.64;;;16.87;81.23
65010;BME280;51556;50.002;22.014;2022-08-01T02:13:46;98815.44;;;16.90;81.25
65010;BME280;51556;50.002;22.014;2022-08-01T02:16:13;98816.37;;;16.89;81.07
65010;BME280;51556;50.002;22.014;2022-08-01T02:18:41;98817.30;;;16.91;81.13
65010;BME280;51556;50.002;22.014;2022-08-01T02:21:10;98815.83;;;16.93;80.93
65010;BME280;51556;50.002;22.014;2022-08-01T02:23:38;98817.16;;;16.94;81.00
65010;BME280;51556;50.002;22.014;2022-08-01T02:26:10;98812.81;;;16.95;80.98
65010;BME280;51556;50.002;22.014;2022-08-01T02:28:53;98811.50;;;16.97;80.98
65010;BME280;51556;50.002;22.014;2022-08-01T02:31:22;98814.83;;;16.94;80.94
65010;BME280;51556;50.002;22.014;2022-08-01T02:34:00;98811.08;;;16.89;80.94
65010;BME280;51556;50.002;22.014;2022-08-01T02:36:30;98812.45;;;16.87;81.00
65010;BME280;51556;50.002;22.014;2022-08-01T02:38:59;98816.89;;;16.84;81.01
65010;BME280;51556;50.002;22.014;2022-08-01T02:41:26;98816.02;;;16.84;81.23
65010;BME280;51556;50.002;22.014;2022-08-01T02:43:58;98817.23;;;16.84;81.11
65010;BME280;51556;50.002;22.014;2022-08-01T02:46:29;98817.73;;;16.84;81.08
65010;BME280;51556;50.002;22.014;2022-08-01T02:49:00;98822.91;;;16.87;81.07
65010;BME280;51556;50.002;22.014;2022-08-01T02:51:28;98825.29;;;16.86;81.02
65010;BME280;51556;50.002;22.014;2022-08-01T02:53:57;98827.79;;;16.83;80.96
65010;BME280;51556;50.002;22.014;2022-08-01T02:56:24;98835.03;;;16.83;80.92
65010;BME280;51556;50.002;22.014;2022-08-01T02:59:33;98839.39;;;16.82;80.91
65010;BME280;51556;50.002;22.014;2022-08-01T03:01:55;98839.55;;;16.79;80.95
65010;BME280;51556;50.002;22.014;2022-08-01T03:04:22;98838.34;;;16.78;81.02
65010;BME280;51556;50.002;22.014;2022-08-01T03:06:50;98842.01;;;16.83;81.15
65010;BME280;51556;50.002;22.014;2022-08-01T03:09:18;98836.73;;;16.88;81.02
65010;BME280;51556;50.002;22.014;2022-08-01T03:11:45;98838.48;;;16.91;80.94
65010;BME280;51556;50.002;22.014;2022-08-01T03:14:12;98841.61;;;16.95;80.88
65010;BME280;51556;50.002;22.014;2022-08-01T03:16:42;98839.71;;;17.01;80.82
65010;BME280;51556;50.002;22.014;2022-08-01T03:19:11;98840.52;;;17.05;80.72
65010;BME280;51556;50.002;22.014;2022-08-01T03:21:37;98838.16;;;17.08;80.69
65010;BME280;51556;50.002;22.014;2022-08-01T03:24:05;98838.64;;;17.12;80.79
65010;BME280;51556;50.002;22.014;2022-08-01T03:26:34;98841.46;;;17.15;80.64
65010;BME280;51556;50.002;22.014;2022-08-01T03:29:04;98839.80;;;17.16;80.60
65010;BME280;51556;50.002;22.014;2022-08-01T03:31:36;98840.89;;;17.13;80.54
65010;BME280;51556;50.002;22.014;2022-08-01T03:34:03;98839.44;;;17.13;80.61
65010;BME280;51556;50.002;22.014;2022-08-01T03:36:31;98840.27;;;17.14;80.69
65010;BME280;51556;50.002;22.014;2022-08-01T03:39:01;98839.00;;;17.15;80.43
65010;BME280;51556;50.002;22.014;2022-08-01T03:41:32;98838.36;;;17.14;80.56
65010;BME280;51556;50.002;22.014;2022-08-01T03:44:05;98838.41;;;17.16;80.45
65010;BME280;51556;50.002;22.014;2022-08-01T03:46:36;98845.55;;;17.18;80.50
65010;BME280;51556;50.002;22.014;2022-08-01T03:49:10;98848.13;;;17.17;80.25
65010;BME280;51556;50.002;22.014;2022-08-01T03:51:37;98848.21;;;17.15;80.24
65010;BME280;51556;50.002;22.014;2022-08-01T03:54:04;98852.35;;;17.18;80.19
65010;BME280;51556;50.002;22.014;2022-08-01T03:56:31;98850.75;;;17.18;80.26
65010;BME280;51556;50.002;22.014;2022-08-01T03:58:59;98850.36;;;17.21;80.13
65010;BME280;51556;50.002;22.014;2022-08-01T04:01:27;98856.18;;;17.19;79.88
65010;BME280;51556;50.002;22.014;2022-08-01T04:03:54;98858.41;;;17.17;80.02
65010;BME280;51556;50.002;22.014;2022-08-01T04:06:20;98861.35;;;17.19;79.99
65010;BME280;51556;50.002;22.014;2022-08-01T04:08:46;98864.12;;;17.23;79.94
65010;BME280;51556;50.002;22.014;2022-08-01T04:11:26;98867.95;;;17.24;79.69
65010;BME280;51556;50.002;22.014;2022-08-01T04:13:52;98867.84;;;17.23;79.70
65010;BME280;51556;50.002;22.014;2022-08-01T04:16:19;98869.54;;;17.18;79.41
65010;BME280;51556;50.002;22.014;2022-08-01T04:18:45;98870.07;;;17.16;79.73
65010;BME280;51556;50.002;22.014;2022-08-01T04:21:11;98869.64;;;17.14;79.88
65010;BME280;51556;50.002;22.014;2022-08-01T04:23:40;98870.94;;;17.13;79.85
65010;BME280;51556;50.002;22.014;2022-08-01T04:26:09;98870.44;;;17.18;79.83
65010;BME280;51556;50.002;22.014;2022-08-01T04:28:36;98864.20;;;17.10;79.34
65010;BME280;51556;50.002;22.014;2022-08-01T04:31:07;98867.70;;;17.02;79.57
65010;BME280;51556;50.002;22.014;2022-08-01T04:33:35;98867.58;;;17.01;79.83
65010;BME280;51556;50.002;22.014;2022-08-01T04:36:03;98865.89;;;17.03;79.95
65010;BME280;51556;50.002;22.014;2022-08-01T04:38:34;98865.96;;;16.98;79.95
65010;BME280;51556;50.002;22.014;2022-08-01T04:41:02;98868.01;;;16.94;80.00
65010;BME280;51556;50.002;22.014;2022-08-01T04:43:31;98869.41;;;16.91;80.07
65010;BME280;51556;50.002;22.014;2022-08-01T04:45:58;98866.41;;;16.91;80.16
65010;BME280;51556;50.002;22.014;2022-08-01T04:48:24;98869.13;;;16.93;80.22
65010;BME280;51556;50.002;22.014;2022-08-01T04:50:51;98870.51;;;16.94;80.22
65010;BME280;51556;50.002;22.014;2022-08-01T04:53:19;98872.52;;;16.96;80.25
65010;BME280;51556;50.002;22.014;2022-08-01T04:55:47;98869.97;;;16.97;80.17
65010;BME280;51556;50.002;22.014;2022-08-01T04:58:14;98872.42;;;16.94;80.30
65010;BME280;51556;50.002;22.014;2022-08-01T05:00:40;98878.02;;;16.93;80.30
65010;BME280;51556;50.002;22.014;2022-08-01T05:03:07;98875.45;;;16.97;80.43
65010;BME280;51556;50.002;22.014;2022-08-01T05:05:32;98872.52;;;16.99;80.18
65010;BME280;51556;50.002;22.014;2022-08-01T05:07:58;98870.08;;;17.01;80.07
65010;BME280;51556;50.002;22.014;2022-08-01T05:10:25;98871.23;;;17.06;80.03
65010;BME280;51556;50.002;22.014;2022-08-01T05:12:51;98872.02;;;17.07;79.95
65010;BME280;51556;50.002;22.014;2022-08-01T05:15:17;98876.15;;;17.12;79.95
65010;BME280;51556;50.002;22.014;2022-08-01T05:17:42;98882.84;;;17.19;79.95
65010;BME280;51556;50.002;22.014;2022-08-01T05:20:09;98885.84;;;17.25;79.93
65010;BME280;51556;50.002;22.014;2022-08-01T05:22:34;98881.92;;;17.31;79.71
65010;BME280;51556;50.002;22.014;2022-08-01T05:25:00;98883.95;;;17.33;79.36
65010;BME280;51556;50.002;22.014;2022-08-01T05:27:26;98882.39;;;17.35;79.43
65010;BME280;51556;50.002;22.014;2022-08-01T05:29:52;98888.26;;;17.39;79.35
65010;BME280;51556;50.002;22.014;2022-08-01T05:32:17;98890.43;;;17.41;79.24
65010;BME280;51556;50.002;22.014;2022-08-01T05:34:43;98891.89;;;17.37;79.22
65010;BME280;51556;50.002;22.014;2022-08-01T05:37:09;98888.50;;;17.37;79.37
65010;BME280;51556;50.002;22.014;2022-08-01T05:39:34;98892.98;;;17.40;79.50
65010;BME280;51556;50.002;22.014;2022-08-01T05:42:00;98892.19;;;17.44;79.53
65010;BME280;51556;50.002;22.014;2022-08-01T05:44:25;98891.31;;;17.47;79.34
65010;BME280;51556;50.002;22.014;2022-08-01T05:46:51;98894.18;;;17.49;79.40
65010;BME280;51556;50.002;22.014;2022-08-01T05:49:17;98893.07;;;17.50;79.23
65010;BME280;51556;50.002;22.014;2022-08-01T05:51:43;98894.24;;;17.46;79.04
65010;BME280;51556;50.002;22.014;2022-08-01T05:54:09;98899.80;;;17.36;79.16
65010;BME280;51556;50.002;22.014;2022-08-01T05:56:34;98898.98;;;17.29;79.42
65010;BME280;51556;50.002;22.014;2022-08-01T05:59:00;98900.19;;;17.26;79.63
65010;BME280;51556;50.002;22.014;2022-08-01T06:01:25;98899.91;;;17.22;79.60
65010;BME280;51556;50.002;22.014;2022-08-01T06:03:51;98901.77;;;17.21;79.68
65010;BME280;51556;50.002;22.014;2022-08-01T06:06:22;98901.05;;;17.24;79.76
65010;BME280;51556;50.002;22.014;2022-08-01T06:08:48;98902.63;;;17.24;79.87
65010;BME280;51556;50.002;22.014;2022-08-01T06:11:13;98906.94;;;17.23;79.98
65010;BME280;51556;50.002;22.014;2022-08-01T06:13:39;98908.61;;;17.28;80.28
65010;BME280;51556;50.002;22.014;2022-08-01T06:16:05;98912.95;;;17.30;79.94
65010;BME280;51556;50.002;22.014;2022-08-01T06:18:30;98914.10;;;17.32;80.02
65010;BME280;51556;50.002;22.014;2022-08-01T06:20:56;98917.63;;;17.30;79.95
65010;BME280;51556;50.002;22.014;2022-08-01T06:23:22;98916.34;;;17.30;80.11
65010;BME280;51556;50.002;22.014;2022-08-01T06:25:48;98913.16;;;17.30;80.01
65010;BME280;51556;50.002;22.014;2022-08-01T06:28:14;98919.71;;;17.27;80.00
65010;BME280;51556;50.002;22.014;2022-08-01T06:30:39;98921.05;;;17.23;79.96
65010;BME280;51556;50.002;22.014;2022-08-01T06:33:05;98923.68;;;17.23;80.00
65010;BME280;51556;50.002;22.014;2022-08-01T06:35:30;98922.80;;;17.29;80.18
65010;BME280;51556;50.002;22.014;2022-08-01T06:37:57;98929.04;;;17.35;80.00
65010;BME280;51556;50.002;22.014;2022-08-01T06:40:22;98930.93;;;17.39;79.64
65010;BME280;51556;50.002;22.014;2022-08-01T06:42:48;98931.52;;;17.35;79.63
65010;BME280;51556;50.002;22.014;2022-08-01T06:45:14;98932.25;;;17.32;79.52
65010;BME280;51556;50.002;22.014;2022-08-01T06:47:42;98935.16;;;17.25;79.46
65010;BME280;51556;50.002;22.014;2022-08-01T06:50:09;98936.65;;;17.18;79.54
65010;BME280;51556;50.002;22.014;2022-08-01T06:52:35;98937.84;;;17.04;79.68
65010;BME280;51556;50.002;22.014;2022-08-01T06:55:01;98939.86;;;16.99;79.94
65010;BME280;51556;50.002;22.014;2022-08-01T06:57:27;98940.11;;;16.98;79.90
65010;BME280;51556;50.002;22.014;2022-08-01T06:59:54;98945.29;;;16.98;80.14
65010;BME280;51556;50.002;22.014;2022-08-01T07:02:19;98943.84;;;17.01;80.11
65010;BME280;51556;50.002;22.014;2022-08-01T07:04:45;98949.56;;;17.07;80.04
65010;BME280;51556;50.002;22.014;2022-08-01T07:07:11;98952.40;;;17.07;80.09
65010;BME280;51556;50.002;22.014;2022-08-01T07:09:37;98954.41;;;17.09;80.14
65010;BME280;51556;50.002;22.014;2022-08-01T07:12:06;98955.79;;;17.13;80.09
65010;BME280;51556;50.002;22.014;2022-08-01T07:14:31;98958.02;;;17.20;79.98
65010;BME280;51556;50.002;22.014;2022-08-01T07:16:57;98965.49;;;17.20;79.91
65010;BME280;51556;50.002;22.014;2022-08-01T07:19:22;98966.42;;;17.13;79.80
65010;BME280;51556;50.002;22.014;2022-08-01T07:21:48;98968.77;;;17.13;79.94
65010;BME280;51556;50.002;22.014;2022-08-01T07:24:14;98972.37;;;17.18;80.06
65010;BME280;51556;50.002;22.014;2022-08-01T07:26:41;98976.08;;;17.24;79.74
65010;BME280;51556;50.002;22.014;2022-08-01T07:29:07;98979.86;;;17.30;79.37
65010;BME280;51556;50.002;22.014;2022-08-01T07:31:33;98978.06;;;17.30;79.37
65010;BME280;51556;50.002;22.014;2022-08-01T07:33:58;98980.88;;;17.34;79.26
65010;BME280;51556;50.002;22.014;2022-08-01T07:36:24;98978.34;;;17.41;79.36
65010;BME280;51556;50.002;22.014;2022-08-01T07:38:49;98976.98;;;17.45;79.08
65010;BME280;51556;50.002;22.014;2022-08-01T07:41:15;98977.96;;;17.52;79.23
65010;BME280;51556;50.002;22.014;2022-08-01T07:43:40;98976.34;;;17.59;78.96
65010;BME280;51556;50.002;22.014;2022-08-01T07:46:06;98978.10;;;17.66;78.58
65010;BME280;51556;50.002;22.014;2022-08-01T07:48:33;98978.13;;;17.74;78.08
65010;BME280;51556;50.002;22.014;2022-08-01T07:50:58;98981.88;;;17.80;77.71
65010;BME280;51556;50.002;22.014;2022-08-01T07:53:24;98984.51;;;17.86;77.68
65010;BME280;51556;50.002;22.014;2022-08-01T07:55:50;98986.70;;;17.88;76.97
65010;BME280;51556;50.002;22.014;2022-08-01T07:58:16;98983.63;;;17.88;77.03
65010;BME280;51556;50.002;22.014;2022-08-01T08:00:42;98983.54;;;17.93;77.07
65010;BME280;51556;50.002;22.014;2022-08-01T08:03:08;98982.69;;;17.95;76.91
65010;BME280;51556;50.002;22.014;2022-08-01T08:05:34;98988.39;;;18.01;76.94
65010;BME280;51556;50.002;22.014;2022-08-01T08:08:07;98985.42;;;18.09;76.85
65010;BME280;51556;50.002;22.014;2022-08-01T08:10:34;98992.36;;;18.23;77.11
65010;BME280;51556;50.002;22.014;2022-08-01T08:13:00;98993.08;;;18.37;76.54
65010;BME280;51556;50.002;22.014;2022-08-01T08:15:27;98994.70;;;18.48;76.16
65010;BME280;51556;50.002;22.014;2022-08-01T08:17:53;98993.98;;;18.59;75.25
65010;BME280;51556;50.002;22.014;2022-08-01T08:20:18;98996.14;;;18.67;75.30
65010;BME280;51556;50.002;22.014;2022-08-01T08:22:46;98998.04;;;18.82;75.87
65010;BME280;51556;50.002;22.014;2022-08-01T08:25:12;98997.10;;;18.96;75.14
65010;BME280;51556;50.002;22.014;2022-08-01T08:27:37;98996.84;;;19.03;74.26
65010;BME280;51556;50.002;22.014;2022-08-01T08:30:04;98996.21;;;19.07;74.11
65010;BME280;51556;50.002;22.014;2022-08-01T08:32:33;98997.61;;;19.10;74.06
65010;BME280;51556;50.002;22.014;2022-08-01T08:34:59;99002.23;;;19.16;73.87
65010;BME280;51556;50.002;22.014;2022-08-01T08:37:25;99003.93;;;19.17;73.02
65010;BME280;51556;50.002;22.014;2022-08-01T08:39:50;99006.11;;;19.17;73.51
65010;BME280;51556;50.002;22.014;2022-08-01T08:42:16;99006.48;;;19.25;73.94
65010;BME280;51556;50.002;22.014;2022-08-01T08:44:42;99003.74;;;19.33;73.30
65010;BME280;51556;50.002;22.014;2022-08-01T08:47:08;99004.38;;;19.43;73.29
65010;BME280;51556;50.002;22.014;2022-08-01T08:49:36;99006.83;;;19.52;72.42
65010;BME280;51556;50.002;22.014;2022-08-01T08:52:03;99006.87;;;19.62;72.12
65010;BME280;51556;50.002;22.014;2022-08-01T08:54:31;99008.36;;;19.73;71.83
65010;BME280;51556;50.002;22.014;2022-08-01T08:56:58;99009.03;;;19.84;71.24
65010;BME280;51556;50.002;22.014;2022-08-01T08:59:26;99012.27;;;20.00;71.31
65010;BME280;51556;50.002;22.014;2022-08-01T09:01:52;99018.26;;;20.11;70.59
65010;BME280;51556;50.002;22.014;2022-08-01T09:04:20;99020.00;;;20.19;70.17
65010;BME280;51556;50.002;22.014;2022-08-01T09:06:48;99018.67;;;20.25;70.00
65010;BME280;51556;50.002;22.014;2022-08-01T09:09:14;99019.92;;;20.33;69.40
65010;BME280;51556;50.002;22.014;2022-08-01T09:11:40;99020.95;;;20.39;68.74
65010;BME280;51556;50.002;22.014;2022-08-01T09:14:11;99020.79;;;20.48;69.18
65010;BME280;51556;50.002;22.014;2022-08-01T09:16:43;99019.55;;;20.66;68.86
65010;BME280;51556;50.002;22.014;2022-08-01T09:19:17;99020.89;;;20.84;68.91
65010;BME280;51556;50.002;22.014;2022-08-01T09:22:02;99017.23;;;20.90;64.83
65010;BME280;51556;50.002;22.014;2022-08-01T09:24:30;99018.98;;;20.90;64.46
65010;BME280;51556;50.002;22.014;2022-08-01T09:26:56;99018.95;;;20.96;66.15
65010;BME280;51556;50.002;22.014;2022-08-01T09:29:25;99021.13;;;21.13;66.44
65010;BME280;51556;50.002;22.014;2022-08-01T09:31:51;99020.69;;;21.28;65.94
65010;BME280;51556;50.002;22.014;2022-08-01T09:34:28;99016.32;;;21.42;65.07
65010;BME280;51556;50.002;22.014;2022-08-01T09:36:59;99017.67;;;21.54;63.31
65010;BME280;51556;50.002;22.014;2022-08-01T09:39:28;99015.36;;;21.65;63.68
65010;BME280;51556;50.002;22.014;2022-08-01T09:42:02;99018.34;;;21.80;62.67
65010;BME280;51556;50.002;22.014;2022-08-01T09:44:44;99015.08;;;21.90;62.53
65010;BME280;51556;50.002;22.014;2022-08-01T09:47:11;99014.89;;;21.92;61.63
65010;BME280;51556;50.002;22.014;2022-08-01T09:49:38;99016.37;;;21.94;61.72
65010;BME280;51556;50.002;22.014;2022-08-01T09:52:19;99009.77;;;21.95;61.44
65010;BME280;51556;50.002;22.014;2022-08-01T09:55:01;99005.92;;;22.04;61.33
65010;BME280;51556;50.002;22.014;2022-08-01T09:57:28;99006.20;;;22.14;61.61
65010;BME280;51556;50.002;22.014;2022-08-01T09:59:56;99007.35;;;22.27;61.45
65010;BME280;51556;50.002;22.014;2022-08-01T10:02:33;99010.80;;;22.42;61.32
65010;BME280;51556;50.002;22.014;2022-08-01T10:05:00;99013.15;;;22.51;59.90
65010;BME280;51556;50.002;22.014;2022-08-01T10:07:26;99000.63;;;22.61;60.06
65010;BME280;51556;50.002;22.014;2022-08-01T10:09:52;98999.20;;;22.79;60.44
65010;BME280;51556;50.002;22.014;2022-08-01T10:12:23;98997.73;;;22.91;58.51
65010;BME280;51556;50.002;22.014;2022-08-01T10:14:50;99003.54;;;22.99;59.13
65010;BME280;51556;50.002;22.014;2022-08-01T10:17:19;99003.70;;;23.14;58.47
65010;BME280;51556;50.002;22.014;2022-08-01T10:19:46;98998.54;;;23.24;57.83
65010;BME280;51556;50.002;22.014;2022-08-01T10:22:15;99001.66;;;23.36;57.23
65010;BME280;51556;50.002;22.014;2022-08-01T10:24:45;99001.20;;;23.52;56.40
65010;BME280;51556;50.002;22.014;2022-08-01T10:27:15;99001.99;;;23.67;55.07
65010;BME280;51556;50.002;22.014;2022-08-01T10:29:46;98997.23;;;23.78;53.89
65010;BME280;51556;50.002;22.014;2022-08-01T10:32:12;98999.75;;;23.92;54.52
65010;BME280;51556;50.002;22.014;2022-08-01T10:34:38;99000.64;;;24.12;54.71
65010;BME280;51556;50.002;22.014;2022-08-01T10:37:05;99002.78;;;24.28;52.85
65010;BME280;51556;50.002;22.014;2022-08-01T10:39:32;99001.22;;;24.44;52.59
65010;BME280;51556;50.002;22.014;2022-08-01T10:41:59;99002.96;;;24.58;50.97
65010;BME280;51556;50.002;22.014;2022-08-01T10:44:27;99002.45;;;24.66;47.97
65010;BME280;51556;50.002;22.014;2022-08-01T10:47:09;99003.27;;;24.71;48.64
65010;BME280;51556;50.002;22.014;2022-08-01T10:49:45;99003.98;;;24.86;50.03
65010;BME280;51556;50.002;22.014;2022-08-01T10:52:17;99003.56;;;25.04;50.76
65010;BME280;51556;50.002;22.014;2022-08-01T10:54:44;98999.21;;;25.24;50.01
65010;BME280;51556;50.002;22.014;2022-08-01T10:57:10;99003.07;;;25.41;48.68
65010;BME280;51556;50.002;22.014;2022-08-01T10:59:51;99003.98;;;25.47;47.28
65010;BME280;51556;50.002;22.014;2022-08-01T11:02:29;99007.14;;;25.47;47.89
65010;BME280;51556;50.002;22.014;2022-08-01T11:04:55;99004.10;;;25.47;48.57
65010;BME280;51556;50.002;22.014;2022-08-01T11:07:55;99008.04;;;25.53;49.53
65010;BME280;51556;50.002;22.014;2022-08-01T11:10:42;99009.02;;;25.56;48.16
65010;BME280;51556;50.002;22.014;2022-08-01T11:13:09;99009.36;;;25.49;48.16
65010;BME280;51556;50.002;22.014;2022-08-01T11:15:37;99008.16;;;25.42;48.45
65010;BME280;51556;50.002;22.014;2022-08-01T11:21:11;99006.16;;;25.30;47.99
65010;BME280;51556;50.002;22.014;2022-08-01T11:23:48;99007.78;;;25.23;47.86
65010;BME280;51556;50.002;22.014;2022-08-01T11:26:15;99007.45;;;25.19;48.32
65010;BME280;51556;50.002;22.014;2022-08-01T11:28:42;99005.84;;;25.16;49.17
65010;BME280;51556;50.002;22.014;2022-08-01T11:38:36;98994.62;;;25.26;49.08
65010;BME280;51556;50.002;22.014;2022-08-01T11:41:20;99001.25;;;25.19;46.69
65010;BME280;51556;50.002;22.014;2022-08-01T11:46:55;98999.30;;;25.05;46.17
65010;BME280;51556;50.002;22.014;2022-08-01T11:52:16;98993.65;;;25.00;45.47
65010;BME280;51556;50.002;22.014;2022-08-01T11:54:52;98994.67;;;25.11;44.74
65010;BME280;51556;50.002;22.014;2022-08-01T11:57:26;98994.75;;;25.33;46.54
65010;BME280;51556;50.002;22.014;2022-08-01T11:59:57;98997.14;;;25.54;46.61
65010;BME280;51556;50.002;22.014;2022-08-01T12:02:27;98994.48;;;25.59;44.53
65010;BME280;51556;50.002;22.014;2022-08-01T12:05:05;99001.23;;;25.57;44.67
65010;BME280;51556;50.002;22.014;2022-08-01T12:07:32;98993.55;;;25.71;45.12
65010;BME280;51556;50.002;22.014;2022-08-01T12:12:24;98990.53;;;26.24;45.30
65010;BME280;51556;50.002;22.014;2022-08-01T12:14:55;98990.59;;;26.51;45.21
65010;BME280;51556;50.002;22.014;2022-08-01T12:17:28;98984.45;;;26.83;44.92
65010;BME280;51556;50.002;22.014;2022-08-01T12:19:54;98985.86;;;27.03;43.68
65010;BME280;51556;50.002;22.014;2022-08-01T12:22:22;98981.63;;;27.24;43.63
65010;BME280;51556;50.002;22.014;2022-08-01T12:24:47;98983.02;;;27.51;44.19
65010;BME280;51556;50.002;22.014;2022-08-01T12:27:24;98982.10;;;27.71;42.39
65010;BME280;51556;50.002;22.014;2022-08-01T12:29:50;98976.06;;;27.79;41.82
65010;BME280;51556;50.002;22.014;2022-08-01T12:32:29;98979.56;;;27.91;41.62
65010;BME280;51556;50.002;22.014;2022-08-01T12:35:01;98971.73;;;28.05;42.60
65010;BME280;51556;50.002;22.014;2022-08-01T12:37:27;98970.98;;;28.08;41.70
65010;BME280;51556;50.002;22.014;2022-08-01T12:39:53;98969.31;;;28.04;42.10
65010;BME280;51556;50.002;22.014;2022-08-01T12:42:18;98971.95;;;28.16;41.28
65010;BME280;51556;50.002;22.014;2022-08-01T12:44:46;98972.26;;;28.31;41.78
65010;BME280;51556;50.002;22.014;2022-08-01T12:47:14;98975.15;;;28.48;40.48
65010;BME280;51556;50.002;22.014;2022-08-01T12:49:42;98974.39;;;28.63;40.90
65010;BME280;51556;50.002;22.014;2022-08-01T12:52:09;98971.66;;;28.84;39.89
65010;BME280;51556;50.002;22.014;2022-08-01T12:57:25;98968.25;;;29.35;40.42
65010;BME280;51556;50.002;22.014;2022-08-01T12:59:53;98972.08;;;29.57;38.69
65010;BME280;51556;50.002;22.014;2022-08-01T13:02:18;98968.50;;;29.76;39.48
65010;BME280;51556;50.002;22.014;2022-08-01T13:04:53;98963.48;;;30.00;38.71
65010;BME280;51556;50.002;22.014;2022-08-01T13:07:18;98965.27;;;30.16;37.12
65010;BME280;51556;50.002;22.014;2022-08-01T13:09:51;98964.45;;;30.21;36.27
65010;BME280;51556;50.002;22.014;2022-08-01T13:12:16;98962.77;;;30.20;36.35
65010;BME280;51556;50.002;22.014;2022-08-01T13:14:42;98960.73;;;30.25;36.53
65010;BME280;51556;50.002;22.014;2022-08-01T13:17:07;98953.92;;;30.33;36.48
65010;BME280;51556;50.002;22.014;2022-08-01T13:19:45;98950.06;;;30.33;35.90
65010;BME280;51556;50.002;22.014;2022-08-01T13:22:12;98954.03;;;30.10;36.24
65010;BME280;51556;50.002;22.014;2022-08-01T13:24:38;98954.46;;;30.12;36.48
65010;BME280;51556;50.002;22.014;2022-08-01T13:27:04;98954.55;;;30.22;36.71
65010;BME280;51556;50.002;22.014;2022-08-01T13:29:31;98958.15;;;30.49;35.01